Pacific Star — WDG7068 — position and weather

sailwx.info

Track history (hours):
 
Tides and Currents Weather Stations Pressure Air Temp Water Temp Dewpoint Dewpoint Depression Visibility Wind Speed Wind Dir Waves Ship Positions

Pacific Star

Owner: Foss Maritime Company, Seattle, WA. More information available from US FCC via Universal Licensing System and Coast Guard Vessel Documentation Center.

Last reported at 2017-Nov-19 20:26 UTC. Time now 2017-Nov-20 15:24 UTC.
Position N 33°45' W 118°12'.

Length 30 m; draft 5.4 m.

Type: Tug. MMSI: 367563590.

Date/timePositionNaut miles runAvg speedWind from/ knotsBaromVisibWave heightAir tempDewpointWater temp
2017-Nov-19 20:26N 33°45' W 118°12'3 6.7
2017-Nov-19 19:59N 33°43' W 118°15'1 2.0
2017-Nov-19 19:29N 33°44' W 118°15'2 0.5
2017-Nov-19 14:58N 33°46' W 118°15'1 1.3
2017-Nov-19 14:20N 33°45' W 118°16'2 4.0
2017-Nov-19 13:55N 33°44' W 118°16'2 3.9
2017-Nov-19 13:25N 33°43' W 118°15'2 5.5
2017-Nov-19 13:00N 33°45' W 118°13'2 2.7
2017-Nov-19 12:25N 33°46' W 118°13'0 0.0
2017-Nov-19 12:00N 33°46' W 118°13'0 0.0
2017-Nov-19 11:30N 33°46' W 118°13'0 0.0
2017-Nov-19 10:58N 33°46' W 118°13'0 0.0
2017-Nov-19 09:31N 33°46' W 118°13'0 0.0
2017-Nov-19 09:30N 33°46' W 118°13'0 0.0
2017-Nov-19 07:34N 33°46' W 118°13'0 0.0
2017-Nov-19 07:30N 33°46' W 118°13'0 0.0
2017-Nov-19 06:37N 33°46' W 118°13'0 0.0
2017-Nov-19 06:22N 33°46' W 118°13'0 0.0
2017-Nov-19 05:07N 33°46' W 118°13'2 2.1
2017-Nov-19 04:23N 33°45' W 118°13'1 1.5
2017-Nov-19 04:00N 33°45' W 118°13'1 0.5
2017-Nov-19 01:46N 33°46' W 118°14'0 0.2
2017-Nov-19 01:29N 33°46' W 118°14'1 1.7
2017-Nov-19 01:00N 33°46' W 118°13'0 0.0
2017-Nov-19 00:30N 33°46' W 118°13'0 0.0
2017-Nov-18 23:59N 33°46' W 118°13'0 0.0
2017-Nov-18 23:30N 33°46' W 118°13'0 0.0
2017-Nov-18 22:58N 33°46' W 118°13'0 0.0
2017-Nov-18 22:22N 33°46' W 118°13'0 0.0
2017-Nov-18 22:00N 33°46' W 118°13'0 0.0
2017-Nov-18 21:30N 33°46' W 118°13'0 0.0
2017-Nov-18 20:58N 33°46' W 118°13'1 0.1
2017-Nov-18 10:57N 33°46' W 118°14'5 0.3
2017-Nov-17 17:53N 33°42' W 118°17'4 8.3
2017-Nov-17 17:25N 33°42' W 118°21'3 7.0
2017-Nov-17 17:00N 33°44' W 118°25'2 3.1
2017-Nov-17 16:31N 33°44' W 118°27'4 8.1
2017-Nov-17 16:00N 33°42' W 118°22'4 8.5
2017-Nov-17 15:30N 33°42' W 118°17'5 2.4
2017-Nov-17 13:35N 33°44' W 118°12'1 6.0
2017-Nov-17 13:29N 33°44' W 118°12'0 0.2
2017-Nov-17 12:55N 33°44' W 118°12'3 0.3
2017-Nov-17 02:35N 33°43' W 118°15'112.3
2017-Nov-17 02:30N 33°43' W 118°16'3 0.3
2017-Nov-16 13:35N 33°45' W 118°12'0 2.6
2017-Nov-16 13:31N 33°45' W 118°12'1 1.5
2017-Nov-16 12:58N 33°44' W 118°12'1 1.6
2017-Nov-16 12:25N 33°44' W 118°11'2 5.1
2017-Nov-16 12:00N 33°45' W 118°13'1 1.8
2017-Nov-16 11:30N 33°45' W 118°14'0 0.1
2017-Nov-16 10:59N 33°45' W 118°14'0 0.8
2017-Nov-16 10:30N 33°45' W 118°14'3 0.3
2017-Nov-16 00:28N 33°43' W 118°10'1 2.7
2017-Nov-16 00:00N 33°42' W 118°11'4 7.3
2017-Nov-15 23:29N 33°45' W 118°13'1 0.6
2017-Nov-15 21:34N 33°46' W 118°13'0 0.0
2017-Nov-15 18:06N 33°46' W 118°13'1 0.8
2017-Nov-15 17:24N 33°46' W 118°13'2 5.5
2017-Nov-15 16:59N 33°44' W 118°13'3 2.5
2017-Nov-15 15:51N 33°46' W 118°16'1 2.6
2017-Nov-15 15:27N 33°45' W 118°16'0 0.1
2017-Nov-15 14:59N 33°45' W 118°16'2 2.2
2017-Nov-15 14:13N 33°43' W 118°16'1 6.3
2017-Nov-15 14:00N 33°42' W 118°15'2 3.0
2017-Nov-15 13:30N 33°44' W 118°14'2 3.1
2017-Nov-15 12:57N 33°45' W 118°14'1 2.8
2017-Nov-15 12:30N 33°44' W 118°13'1 2.7
2017-Nov-15 12:00N 33°43' W 118°12'3 5.5
2017-Nov-15 11:29N 33°46' W 118°13'1 0.5
2017-Nov-15 10:19N 33°45' W 118°13'3 7.7
2017-Nov-15 09:53N 33°43' W 118°16'4 0.3
2017-Nov-14 22:43N 33°43' W 118°11'1 0.7
2017-Nov-14 20:59N 33°45' W 118°12'3 5.5
2017-Nov-14 20:27N 33°43' W 118°15'2 5.3
2017-Nov-14 19:59N 33°45' W 118°16'0 0.5
2017-Nov-14 19:25N 33°45' W 118°16'3 0.9
2017-Nov-14 15:29N 33°46' W 118°13'1 2.4
2017-Nov-14 14:58N 33°45' W 118°14'2 3.0
2017-Nov-14 14:24N 33°44' W 118°12'2 0.1
2017-Nov-13 23:25N 33°46' W 118°13'2 5.8
2017-Nov-13 23:00N 33°44' W 118°12'0 0.6
2017-Nov-13 22:20N 33°44' W 118°12'1 1.7
2017-Nov-13 21:59N 33°44' W 118°11'3 0.1
2017-Nov-13 00:01N 33°46' W 118°13'0 0.0
2017-Nov-12 23:44N 33°46' W 118°13'0 0.0
2017-Nov-12 23:28N 33°46' W 118°13'0 0.0
2017-Nov-12 23:00N 33°46' W 118°13'0 0.0
2017-Nov-12 22:29N 33°46' W 118°13'0 0.0
2017-Nov-12 21:54N 33°46' W 118°13'0 0.0
2017-Nov-12 16:12N 33°46' W 118°13'0 0.0
2017-Nov-12 15:55N 33°46' W 118°13'0 0.0
2017-Nov-12 15:04N 33°46' W 118°13'0 0.0
2017-Nov-12 14:43N 33°46' W 118°13'0 0.0
2017-Nov-12 14:30N 33°46' W 118°13'0 0.7
2017-Nov-12 14:00N 33°46' W 118°13'3 5.4
2017-Nov-12 13:29N 33°44' W 118°11'1 1.7
2017-Nov-12 13:00N 33°44' W 118°12'0 0.7
2017-Nov-12 12:30N 33°44' W 118°12'2 4.6
2017-Nov-12 12:00N 33°46' W 118°13'0 0.1
2017-Nov-12 06:53N 33°46' W 118°13'1 0.4
2017-Nov-12 03:41N 33°45' W 118°13'1 1.2
2017-Nov-12 03:02N 33°45' W 118°12'0 2.4
2017-Nov-12 03:00N 33°45' W 118°12'0 0.7
2017-Nov-12 02:28N 33°44' W 118°12'  
2017-Nov-09 21:09N 33°42' W 118°17'211.8
2017-Nov-09 21:00N 33°42' W 118°19'611.9
2017-Nov-09 20:30N 33°45' W 118°26'  
Track history (hours):
 
Tides and Currents Weather Stations Pressure Air Temp Water Temp Dewpoint Dewpoint Depression Visibility Wind Speed Wind Dir Waves Ship Positions

Pacific Star

Owner: Foss Maritime Company, Seattle, WA. More information available from US FCC via Universal Licensing System and Coast Guard Vessel Documentation Center.

Last reported at 2017-Nov-19 20:26 UTC. Time now 2017-Nov-20 15:24 UTC.
Position N 33°45' W 118°12'.

Length 30 m; draft 5.4 m.

Type: Tug. MMSI: 367563590.

Date/timePositionNaut miles runAvg speedWind from/ knotsBaromVisibWave heightAir tempDewpointWater temp
2017-Nov-19 20:26N 33°45' W 118°12'3 6.7
2017-Nov-19 19:59N 33°43' W 118°15'1 2.0
2017-Nov-19 19:29N 33°44' W 118°15'2 0.5
2017-Nov-19 14:58N 33°46' W 118°15'1 1.3
2017-Nov-19 14:20N 33°45' W 118°16'2 4.0
2017-Nov-19 13:55N 33°44' W 118°16'2 3.9
2017-Nov-19 13:25N 33°43' W 118°15'2 5.5
2017-Nov-19 13:00N 33°45' W 118°13'2 2.7
2017-Nov-19 12:25N 33°46' W 118°13'0 0.0
2017-Nov-19 12:00N 33°46' W 118°13'0 0.0
2017-Nov-19 11:30N 33°46' W 118°13'0 0.0
2017-Nov-19 10:58N 33°46' W 118°13'0 0.0
2017-Nov-19 09:31N 33°46' W 118°13'0 0.0
2017-Nov-19 09:30N 33°46' W 118°13'0 0.0
2017-Nov-19 07:34N 33°46' W 118°13'0 0.0
2017-Nov-19 07:30N 33°46' W 118°13'0 0.0
2017-Nov-19 06:37N 33°46' W 118°13'0 0.0
2017-Nov-19 06:22N 33°46' W 118°13'0 0.0
2017-Nov-19 05:07N 33°46' W 118°13'2 2.1
2017-Nov-19 04:23N 33°45' W 118°13'1 1.5
2017-Nov-19 04:00N 33°45' W 118°13'1 0.5
2017-Nov-19 01:46N 33°46' W 118°14'0 0.2
2017-Nov-19 01:29N 33°46' W 118°14'1 1.7
2017-Nov-19 01:00N 33°46' W 118°13'0 0.0
2017-Nov-19 00:30N 33°46' W 118°13'0 0.0
2017-Nov-18 23:59N 33°46' W 118°13'0 0.0
2017-Nov-18 23:30N 33°46' W 118°13'0 0.0
2017-Nov-18 22:58N 33°46' W 118°13'0 0.0
2017-Nov-18 22:22N 33°46' W 118°13'0 0.0
2017-Nov-18 22:00N 33°46' W 118°13'0 0.0
2017-Nov-18 21:30N 33°46' W 118°13'0 0.0
2017-Nov-18 20:58N 33°46' W 118°13'1 0.1
2017-Nov-18 10:57N 33°46' W 118°14'5 0.3
2017-Nov-17 17:53N 33°42' W 118°17'4 8.3
2017-Nov-17 17:25N 33°42' W 118°21'3 7.0
2017-Nov-17 17:00N 33°44' W 118°25'2 3.1
2017-Nov-17 16:31N 33°44' W 118°27'4 8.1
2017-Nov-17 16:00N 33°42' W 118°22'4 8.5
2017-Nov-17 15:30N 33°42' W 118°17'5 2.4
2017-Nov-17 13:35N 33°44' W 118°12'1 6.0
2017-Nov-17 13:29N 33°44' W 118°12'0 0.2
2017-Nov-17 12:55N 33°44' W 118°12'3 0.3
2017-Nov-17 02:35N 33°43' W 118°15'112.3
2017-Nov-17 02:30N 33°43' W 118°16'3 0.3
2017-Nov-16 13:35N 33°45' W 118°12'0 2.6
2017-Nov-16 13:31N 33°45' W 118°12'1 1.5
2017-Nov-16 12:58N 33°44' W 118°12'1 1.6
2017-Nov-16 12:25N 33°44' W 118°11'2 5.1
2017-Nov-16 12:00N 33°45' W 118°13'1 1.8
2017-Nov-16 11:30N 33°45' W 118°14'0 0.1
2017-Nov-16 10:59N 33°45' W 118°14'0 0.8
2017-Nov-16 10:30N 33°45' W 118°14'3 0.3
2017-Nov-16 00:28N 33°43' W 118°10'1 2.7
2017-Nov-16 00:00N 33°42' W 118°11'4 7.3
2017-Nov-15 23:29N 33°45' W 118°13'1 0.6
2017-Nov-15 21:34N 33°46' W 118°13'0 0.0
2017-Nov-15 18:06N 33°46' W 118°13'1 0.8
2017-Nov-15 17:24N 33°46' W 118°13'2 5.5
2017-Nov-15 16:59N 33°44' W 118°13'3 2.5
2017-Nov-15 15:51N 33°46' W 118°16'1 2.6
2017-Nov-15 15:27N 33°45' W 118°16'0 0.1
2017-Nov-15 14:59N 33°45' W 118°16'2 2.2
2017-Nov-15 14:13N 33°43' W 118°16'1 6.3
2017-Nov-15 14:00N 33°42' W 118°15'2 3.0
2017-Nov-15 13:30N 33°44' W 118°14'2 3.1
2017-Nov-15 12:57N 33°45' W 118°14'1 2.8
2017-Nov-15 12:30N 33°44' W 118°13'1 2.7
2017-Nov-15 12:00N 33°43' W 118°12'3 5.5
2017-Nov-15 11:29N 33°46' W 118°13'1 0.5
2017-Nov-15 10:19N 33°45' W 118°13'3 7.7
2017-Nov-15 09:53N 33°43' W 118°16'4 0.3
2017-Nov-14 22:43N 33°43' W 118°11'1 0.7
2017-Nov-14 20:59N 33°45' W 118°12'3 5.5
2017-Nov-14 20:27N 33°43' W 118°15'2 5.3
2017-Nov-14 19:59N 33°45' W 118°16'0 0.5
2017-Nov-14 19:25N 33°45' W 118°16'3 0.9
2017-Nov-14 15:29N 33°46' W 118°13'1 2.4
2017-Nov-14 14:58N 33°45' W 118°14'2 3.0
2017-Nov-14 14:24N 33°44' W 118°12'2 0.1
2017-Nov-13 23:25N 33°46' W 118°13'2 5.8
2017-Nov-13 23:00N 33°44' W 118°12'0 0.6
2017-Nov-13 22:20N 33°44' W 118°12'1 1.7
2017-Nov-13 21:59N 33°44' W 118°11'3 0.1
2017-Nov-13 00:01N 33°46' W 118°13'0 0.0
2017-Nov-12 23:44N 33°46' W 118°13'0 0.0
2017-Nov-12 23:28N 33°46' W 118°13'0 0.0
2017-Nov-12 23:00N 33°46' W 118°13'0 0.0
2017-Nov-12 22:29N 33°46' W 118°13'0 0.0
2017-Nov-12 21:54N 33°46' W 118°13'0 0.0
2017-Nov-12 16:12N 33°46' W 118°13'0 0.0
2017-Nov-12 15:55N 33°46' W 118°13'0 0.0
2017-Nov-12 15:04N 33°46' W 118°13'0 0.0
2017-Nov-12 14:43N 33°46' W 118°13'0 0.0
2017-Nov-12 14:30N 33°46' W 118°13'0 0.7
2017-Nov-12 14:00N 33°46' W 118°13'3 5.4
2017-Nov-12 13:29N 33°44' W 118°11'1 1.7
2017-Nov-12 13:00N 33°44' W 118°12'0 0.7
2017-Nov-12 12:30N 33°44' W 118°12'2 4.6
2017-Nov-12 12:00N 33°46' W 118°13'0 0.1
2017-Nov-12 06:53N 33°46' W 118°13'1 0.4
2017-Nov-12 03:41N 33°45' W 118°13'1 1.2
2017-Nov-12 03:02N 33°45' W 118°12'0 2.4
2017-Nov-12 03:00N 33°45' W 118°12'0 0.7
2017-Nov-12 02:28N 33°44' W 118°12'  
2017-Nov-09 21:09N 33°42' W 118°17'211.8
2017-Nov-09 21:00N 33°42' W 118°19'611.9
2017-Nov-09 20:30N 33°45' W 118°26'  

Dump ship's entire track history